sensor_id;sensor_type;location;lat;lon;timestamp;pressure;altitude;pressure_sealevel;temperature;humidity
39891;BME280;25564;53.312;9.790;2023-09-12T00:01:31;100540.16;;;20.50;74.98
39891;BME280;25564;53.312;9.790;2023-09-12T00:04:04;100552.97;;;20.46;75.47
39891;BME280;25564;53.312;9.790;2023-09-12T00:06:36;100537.88;;;20.28;76.13
39891;BME280;25564;53.312;9.790;2023-09-12T00:09:08;100547.97;;;20.24;76.92
39891;BME280;25564;53.312;9.790;2023-09-12T00:11:40;100557.78;;;20.25;77.11
39891;BME280;25564;53.312;9.790;2023-09-12T00:14:15;100541.03;;;20.20;77.25
39891;BME280;25564;53.312;9.790;2023-09-12T00:16:47;100518.38;;;20.09;77.68
39891;BME280;25564;53.312;9.790;2023-09-12T00:19:18;100512.22;;;20.07;77.88
39891;BME280;25564;53.312;9.790;2023-09-12T00:21:50;100532.16;;;20.18;78.09
39891;BME280;25564;53.312;9.790;2023-09-12T00:24:21;100537.28;;;20.23;78.06
39891;BME280;25564;53.312;9.790;2023-09-12T00:26:53;100518.91;;;20.30;78.28
39891;BME280;25564;53.312;9.790;2023-09-12T00:29:25;100521.41;;;20.33;78.60
39891;BME280;25564;53.312;9.790;2023-09-12T00:31:56;100545.16;;;20.42;79.04
39891;BME280;25564;53.312;9.790;2023-09-12T00:34:28;100547.47;;;20.48;79.18
39891;BME280;25564;53.312;9.790;2023-09-12T00:37:00;100546.81;;;20.59;79.15
39891;BME280;25564;53.312;9.790;2023-09-12T00:39:31;100528.31;;;20.52;79.23
39891;BME280;25564;53.312;9.790;2023-09-12T00:42:03;100522.75;;;20.55;79.87
39891;BME280;25564;53.312;9.790;2023-09-12T00:44:37;100521.28;;;20.64;79.61
39891;BME280;25564;53.312;9.790;2023-09-12T00:47:09;100516.78;;;20.65;80.02
39891;BME280;25564;53.312;9.790;2023-09-12T00:49:43;100511.97;;;20.70;80.03
39891;BME280;25564;53.312;9.790;2023-09-12T00:52:15;100496.94;;;20.66;80.33
39891;BME280;25564;53.312;9.790;2023-09-12T00:54:47;100502.03;;;20.70;80.57
39891;BME280;25564;53.312;9.790;2023-09-12T00:57:19;100515.81;;;20.80;80.58
39891;BME280;25564;53.312;9.790;2023-09-12T00:59:52;100507.41;;;20.84;80.68
39891;BME280;25564;53.312;9.790;2023-09-12T01:02:25;100498.34;;;20.85;80.31
39891;BME280;25564;53.312;9.790;2023-09-12T01:04:56;100487.56;;;20.85;80.76
39891;BME280;25564;53.312;9.790;2023-09-12T01:07:28;100487.66;;;20.84;80.67
39891;BME280;25564;53.312;9.790;2023-09-12T01:10:00;100483.22;;;20.83;80.88
39891;BME280;25564;53.312;9.790;2023-09-12T01:12:32;100471.47;;;20.84;81.34
39891;BME280;25564;53.312;9.790;2023-09-12T01:15:04;100451.81;;;20.82;81.49
39891;BME280;25564;53.312;9.790;2023-09-12T01:17:44;100447.09;;;20.85;81.53
39891;BME280;25564;53.312;9.790;2023-09-12T01:20:31;100436.41;;;20.84;81.90
39891;BME280;25564;53.312;9.790;2023-09-12T01:28:58;100407.66;;;20.70;81.76
39891;BME280;25564;53.312;9.790;2023-09-12T01:31:30;100418.53;;;20.69;82.15
39891;BME280;25564;53.312;9.790;2023-09-12T01:34:10;100411.31;;;20.69;82.14
39891;BME280;25564;53.312;9.790;2023-09-12T01:36:41;100406.13;;;20.66;82.08
39891;BME280;25564;53.312;9.790;2023-09-12T01:39:13;100391.59;;;20.54;82.18
39891;BME280;25564;53.312;9.790;2023-09-12T01:41:47;100404.97;;;20.56;82.29
39891;BME280;25564;53.312;9.790;2023-09-12T01:44:20;100430.78;;;20.46;82.95
39891;BME280;25564;53.312;9.790;2023-09-12T01:46:55;100443.28;;;20.47;82.87
39891;BME280;25564;53.312;9.790;2023-09-12T01:49:29;100391.47;;;20.13;83.13
39891;BME280;25564;53.312;9.790;2023-09-12T01:52:02;100453.50;;;20.42;83.52
39891;BME280;25564;53.312;9.790;2023-09-12T01:54:34;100462.13;;;20.33;83.38
39891;BME280;25564;53.312;9.790;2023-09-12T01:57:08;100457.78;;;20.30;84.08
39891;BME280;25564;53.312;9.790;2023-09-12T01:59:41;100473.09;;;20.30;84.24
39891;BME280;25564;53.312;9.790;2023-09-12T02:02:13;100467.13;;;20.24;84.10
39891;BME280;25564;53.312;9.790;2023-09-12T02:04:53;100480.31;;;20.29;84.53
39891;BME280;25564;53.312;9.790;2023-09-12T02:07:29;100520.28;;;20.37;84.25
39891;BME280;25564;53.312;9.790;2023-09-12T02:10:05;100522.75;;;20.25;84.29
39891;BME280;25564;53.312;9.790;2023-09-12T02:12:37;100517.38;;;20.25;84.55
39891;BME280;25564;53.312;9.790;2023-09-12T02:15:09;100534.41;;;20.26;85.05
39891;BME280;25564;53.312;9.790;2023-09-12T02:17:41;100531.59;;;20.28;84.71
39891;BME280;25564;53.312;9.790;2023-09-12T02:20:12;100525.53;;;20.24;85.18
39891;BME280;25564;53.312;9.790;2023-09-12T02:22:44;100545.09;;;20.28;85.07
39891;BME280;25564;53.312;9.790;2023-09-12T02:25:16;100541.34;;;20.30;85.27
39891;BME280;25564;53.312;9.790;2023-09-12T02:27:48;100548.38;;;20.33;85.37
39891;BME280;25564;53.312;9.790;2023-09-12T02:30:20;100546.53;;;20.33;85.28
39891;BME280;25564;53.312;9.790;2023-09-12T02:32:51;100550.88;;;20.36;85.35
39891;BME280;25564;53.312;9.790;2023-09-12T02:35:23;100548.03;;;20.39;85.97
39891;BME280;25564;53.312;9.790;2023-09-12T02:37:55;100533.84;;;20.35;85.38
39891;BME280;25564;53.312;9.790;2023-09-12T02:40:26;100544.38;;;20.40;85.82
39891;BME280;25564;53.312;9.790;2023-09-12T02:42:58;100548.03;;;20.39;85.87
39891;BME280;25564;53.312;9.790;2023-09-12T02:45:29;100537.78;;;20.30;86.33
39891;BME280;25564;53.312;9.790;2023-09-12T02:48:01;100544.72;;;20.34;86.12
39891;BME280;25564;53.312;9.790;2023-09-12T02:50:33;100545.59;;;20.34;86.26
39891;BME280;25564;53.312;9.790;2023-09-12T02:53:05;100537.28;;;20.23;86.20
39891;BME280;25564;53.312;9.790;2023-09-12T02:55:41;100546.81;;;20.29;86.17
39891;BME280;25564;53.312;9.790;2023-09-12T02:58:13;100541.63;;;20.25;86.30
39891;BME280;25564;53.312;9.790;2023-09-12T03:00:45;100550.47;;;20.28;86.42
39891;BME280;25564;53.312;9.790;2023-09-12T03:03:17;100532.16;;;20.18;86.85
39891;BME280;25564;53.312;9.790;2023-09-12T03:05:59;100483.50;;;19.91;87.03
39891;BME280;25564;53.312;9.790;2023-09-12T03:08:31;100523.81;;;20.23;86.77
39891;BME280;25564;53.312;9.790;2023-09-12T03:11:02;100509.25;;;20.11;86.93
39891;BME280;25564;53.312;9.790;2023-09-12T03:13:34;100517.50;;;20.08;87.47
39891;BME280;25564;53.312;9.790;2023-09-12T03:16:13;100530.03;;;20.09;87.31
39891;BME280;25564;53.312;9.790;2023-09-12T03:18:45;100537.88;;;19.98;87.30
39891;BME280;25564;53.312;9.790;2023-09-12T03:21:17;100548.47;;;20.01;87.82
39891;BME280;25564;53.312;9.790;2023-09-12T03:23:49;100550.19;;;20.02;88.31
39891;BME280;25564;53.312;9.790;2023-09-12T03:26:20;100545.78;;;20.01;88.74
39891;BME280;25564;53.312;9.790;2023-09-12T03:28:52;100532.50;;;19.98;88.46
39891;BME280;25564;53.312;9.790;2023-09-12T03:31:24;100532.66;;;19.95;89.23
39891;BME280;25564;53.312;9.790;2023-09-12T03:33:57;100534.00;;;19.88;89.70
39891;BME280;25564;53.312;9.790;2023-09-12T03:36:28;100533.41;;;19.83;89.95
39891;BME280;25564;53.312;9.790;2023-09-12T03:39:00;100549.56;;;19.83;90.35
39891;BME280;25564;53.312;9.790;2023-09-12T03:41:32;100532.25;;;19.87;91.01
39891;BME280;25564;53.312;9.790;2023-09-12T03:44:06;100512.03;;;19.80;91.48
39891;BME280;25564;53.312;9.790;2023-09-12T03:46:37;100500.97;;;19.70;92.59
39891;BME280;25564;53.312;9.790;2023-09-12T03:49:09;100498.63;;;19.64;94.30
39891;BME280;25564;53.312;9.790;2023-09-12T03:51:41;100510.78;;;19.71;94.72
39891;BME280;25564;53.312;9.790;2023-09-12T03:54:12;100487.44;;;19.56;95.89
39891;BME280;25564;53.312;9.790;2023-09-12T03:56:44;100494.97;;;19.49;96.12
39891;BME280;25564;53.312;9.790;2023-09-12T03:59:16;100502.28;;;19.63;96.91
39891;BME280;25564;53.312;9.790;2023-09-12T04:01:48;100483.53;;;19.62;97.17
39891;BME280;25564;53.312;9.790;2023-09-12T04:04:19;100488.13;;;19.59;97.68
39891;BME280;25564;53.312;9.790;2023-09-12T04:06:51;100491.09;;;19.55;97.88
39891;BME280;25564;53.312;9.790;2023-09-12T04:09:23;100486.91;;;19.49;98.38
39891;BME280;25564;53.312;9.790;2023-09-12T04:11:54;100501.16;;;19.51;98.84
39891;BME280;25564;53.312;9.790;2023-09-12T04:14:26;100491.75;;;19.43;99.25
39891;BME280;25564;53.312;9.790;2023-09-12T04:16:57;100496.28;;;19.42;99.72
39891;BME280;25564;53.312;9.790;2023-09-12T04:19:30;100437.88;;;19.13;99.93
39891;BME280;25564;53.312;9.790;2023-09-12T04:22:03;100496.19;;;19.44;100.00
39891;BME280;25564;53.312;9.790;2023-09-12T04:24:35;100500.22;;;19.52;100.00
39891;BME280;25564;53.312;9.790;2023-09-12T04:27:07;100501.31;;;19.48;100.00
39891;BME280;25564;53.312;9.790;2023-09-12T04:29:39;100511.22;;;19.48;100.00
39891;BME280;25564;53.312;9.790;2023-09-12T04:32:11;100514.84;;;19.47;100.00
39891;BME280;25564;53.312;9.790;2023-09-12T04:34:43;100510.44;;;19.46;100.00
39891;BME280;25564;53.312;9.790;2023-09-12T04:37:14;100523.63;;;19.50;100.00
39891;BME280;25564;53.312;9.790;2023-09-12T04:39:46;100506.69;;;19.48;100.00
39891;BME280;25564;53.312;9.790;2023-09-12T04:42:18;100510.63;;;19.58;100.00
39891;BME280;25564;53.312;9.790;2023-09-12T04:44:50;100494.00;;;19.50;100.00
39891;BME280;25564;53.312;9.790;2023-09-12T04:47:21;100493.97;;;19.52;100.00
39891;BME280;25564;53.312;9.790;2023-09-12T04:49:53;100472.84;;;19.44;100.00
39891;BME280;25564;53.312;9.790;2023-09-12T04:52:24;100476.31;;;19.46;100.00
39891;BME280;25564;53.312;9.790;2023-09-12T04:54:56;100460.34;;;19.43;100.00
39891;BME280;25564;53.312;9.790;2023-09-12T04:57:27;100446.00;;;19.43;100.00
39891;BME280;25564;53.312;9.790;2023-09-12T05:00:02;100447.84;;;19.42;100.00
39891;BME280;25564;53.312;9.790;2023-09-12T05:02:36;100472.47;;;19.50;100.00
39891;BME280;25564;53.312;9.790;2023-09-12T05:05:07;100486.28;;;19.44;100.00
39891;BME280;25564;53.312;9.790;2023-09-12T05:07:39;100463.13;;;19.42;100.00
39891;BME280;25564;53.312;9.790;2023-09-12T05:10:10;100485.16;;;19.48;100.00
39891;BME280;25564;53.312;9.790;2023-09-12T05:12:42;100493.16;;;19.34;100.00
39891;BME280;25564;53.312;9.790;2023-09-12T05:15:13;100480.66;;;19.33;100.00
39891;BME280;25564;53.312;9.790;2023-09-12T05:17:45;100474.50;;;19.31;100.00
39891;BME280;25564;53.312;9.790;2023-09-12T05:20:17;100453.59;;;19.20;100.00
39891;BME280;25564;53.312;9.790;2023-09-12T05:22:48;100464.78;;;19.28;100.00
39891;BME280;25564;53.312;9.790;2023-09-12T05:25:19;100459.66;;;19.24;100.00
39891;BME280;25564;53.312;9.790;2023-09-12T05:27:51;100484.31;;;19.32;100.00
39891;BME280;25564;53.312;9.790;2023-09-12T05:30:23;100518.84;;;19.40;100.00
39891;BME280;25564;53.312;9.790;2023-09-12T05:32:55;100538.66;;;19.39;100.00
39891;BME280;25564;53.312;9.790;2023-09-12T05:35:27;100527.88;;;19.39;100.00
39891;BME280;25564;53.312;9.790;2023-09-12T05:37:59;100515.56;;;19.35;100.00
39891;BME280;25564;53.312;9.790;2023-09-12T05:40:30;100504.63;;;19.38;100.00
39891;BME280;25564;53.312;9.790;2023-09-12T05:43:02;100507.41;;;19.36;100.00
39891;BME280;25564;53.312;9.790;2023-09-12T05:45:34;100519.72;;;19.40;100.00
39891;BME280;25564;53.312;9.790;2023-09-12T05:48:06;100491.00;;;19.25;100.00
39891;BME280;25564;53.312;9.790;2023-09-12T05:50:38;100512.50;;;19.41;100.00
39891;BME280;25564;53.312;9.790;2023-09-12T05:53:10;100504.63;;;19.38;100.00
39891;BME280;25564;53.312;9.790;2023-09-12T05:55:41;100505.13;;;19.44;100.00
39891;BME280;25564;53.312;9.790;2023-09-12T05:58:13;100501.94;;;19.38;100.00
39891;BME280;25564;53.312;9.790;2023-09-12T06:00:45;100502.63;;;19.41;100.00
39891;BME280;25564;53.312;9.790;2023-09-12T06:03:19;100512.34;;;19.59;100.00
39891;BME280;25564;53.312;9.790;2023-09-12T06:05:51;100527.03;;;19.70;100.00
39891;BME280;25564;53.312;9.790;2023-09-12T06:08:23;100536.34;;;19.78;100.00
39891;BME280;25564;53.312;9.790;2023-09-12T06:10:55;100556.03;;;19.95;100.00
39891;BME280;25564;53.312;9.790;2023-09-12T06:13:29;100463.63;;;19.48;100.00
39891;BME280;25564;53.312;9.790;2023-09-12T06:16:01;100528.69;;;19.86;100.00
39891;BME280;25564;53.312;9.790;2023-09-12T06:18:33;100501.06;;;19.69;100.00
39891;BME280;25564;53.312;9.790;2023-09-12T06:21:06;100554.75;;;19.86;100.00
39891;BME280;25564;53.312;9.790;2023-09-12T06:23:40;100568.72;;;19.92;100.00
39891;BME280;25564;53.312;9.790;2023-09-12T06:26:12;100552.34;;;19.81;100.00
39891;BME280;25564;53.312;9.790;2023-09-12T06:28:43;100562.75;;;19.87;100.00
39891;BME280;25564;53.312;9.790;2023-09-12T06:31:15;100579.16;;;19.99;100.00
39891;BME280;25564;53.312;9.790;2023-09-12T06:33:47;100577.69;;;19.93;100.00
39891;BME280;25564;53.312;9.790;2023-09-12T06:36:19;100577.84;;;20.06;100.00
39891;BME280;25564;53.312;9.790;2023-09-12T06:38:51;100589.81;;;20.16;100.00
39891;BME280;25564;53.312;9.790;2023-09-12T06:41:23;100568.88;;;20.05;100.00
39891;BME280;25564;53.312;9.790;2023-09-12T06:43:55;100550.38;;;19.99;100.00
39891;BME280;25564;53.312;9.790;2023-09-12T06:46:29;100567.38;;;20.15;100.00
39891;BME280;25564;53.312;9.790;2023-09-12T06:49:02;100574.91;;;20.24;100.00
39891;BME280;25564;53.312;9.790;2023-09-12T06:51:34;100579.53;;;20.22;100.00
39891;BME280;25564;53.312;9.790;2023-09-12T06:54:09;100572.41;;;20.21;100.00
39891;BME280;25564;53.312;9.790;2023-09-12T06:56:41;100560.84;;;20.19;100.00
39891;BME280;25564;53.312;9.790;2023-09-12T06:59:13;100537.91;;;20.12;100.00
39891;BME280;25564;53.312;9.790;2023-09-12T07:01:45;100560.84;;;20.19;100.00
39891;BME280;25564;53.312;9.790;2023-09-12T07:04:17;100576.84;;;20.22;100.00
39891;BME280;25564;53.312;9.790;2023-09-12T07:06:48;100571.25;;;20.25;100.00
39891;BME280;25564;53.312;9.790;2023-09-12T07:09:20;100581.59;;;20.33;100.00
39891;BME280;25564;53.312;9.790;2023-09-12T07:11:52;100578.03;;;20.33;100.00
39891;BME280;25564;53.312;9.790;2023-09-12T07:14:24;100560.69;;;20.37;100.00
39891;BME280;25564;53.312;9.790;2023-09-12T07:16:56;100555.25;;;20.38;100.00
39891;BME280;25564;53.312;9.790;2023-09-12T07:19:28;100560.84;;;20.49;100.00
39891;BME280;25564;53.312;9.790;2023-09-12T07:22:00;100525.66;;;20.37;100.00
39891;BME280;25564;53.312;9.790;2023-09-12T07:24:32;100529.84;;;20.42;100.00
39891;BME280;25564;53.312;9.790;2023-09-12T07:27:04;100541.50;;;20.57;100.00
39891;BME280;25564;53.312;9.790;2023-09-12T07:29:38;100522.25;;;20.49;100.00
39891;BME280;25564;53.312;9.790;2023-09-12T07:32:09;100527.63;;;20.49;100.00
39891;BME280;25564;53.312;9.790;2023-09-12T07:34:40;100519.47;;;20.50;100.00
39891;BME280;25564;53.312;9.790;2023-09-12T07:37:16;100553.56;;;20.80;100.00
39891;BME280;25564;53.312;9.790;2023-09-12T07:39:48;100535.47;;;20.68;100.00
39891;BME280;25564;53.312;9.790;2023-09-12T07:42:22;100556.38;;;20.78;100.00
39891;BME280;25564;53.312;9.790;2023-09-12T07:44:55;100568.28;;;20.88;100.00
39891;BME280;25564;53.312;9.790;2023-09-12T07:47:27;100560.97;;;20.90;100.00
39891;BME280;25564;53.312;9.790;2023-09-12T07:49:58;100564.81;;;21.01;100.00
39891;BME280;25564;53.312;9.790;2023-09-12T07:52:32;100557.97;;;21.09;100.00
39891;BME280;25564;53.312;9.790;2023-09-12T07:55:04;100564.63;;;21.18;100.00
39891;BME280;25564;53.312;9.790;2023-09-12T07:57:35;100581.59;;;21.34;100.00
39891;BME280;25564;53.312;9.790;2023-09-12T08:00:08;100567.13;;;21.35;100.00
39891;BME280;25564;53.312;9.790;2023-09-12T08:02:41;100514.88;;;21.08;100.00
39891;BME280;25564;53.312;9.790;2023-09-12T08:05:13;100559.13;;;21.34;100.00
39891;BME280;25564;53.312;9.790;2023-09-12T08:07:46;100562.97;;;21.44;100.00
39891;BME280;25564;53.312;9.790;2023-09-12T08:10:18;100608.16;;;21.69;100.00
39891;BME280;25564;53.312;9.790;2023-09-12T08:12:53;100620.50;;;21.73;100.00
39891;BME280;25564;53.312;9.790;2023-09-12T08:15:25;100605.34;;;21.70;100.00
39891;BME280;25564;53.312;9.790;2023-09-12T08:17:56;100616.06;;;21.72;100.00
39891;BME280;25564;53.312;9.790;2023-09-12T08:20:28;100595.25;;;21.60;100.00
39891;BME280;25564;53.312;9.790;2023-09-12T08:23:00;100622.34;;;21.85;100.00
39891;BME280;25564;53.312;9.790;2023-09-12T08:25:35;100625.72;;;21.88;100.00
39891;BME280;25564;53.312;9.790;2023-09-12T08:28:08;100611.13;;;21.91;100.00
39891;BME280;25564;53.312;9.790;2023-09-12T08:30:39;100614.09;;;22.01;100.00
39891;BME280;25564;53.312;9.790;2023-09-12T08:33:11;100608.81;;;22.26;100.00
39891;BME280;25564;53.312;9.790;2023-09-12T08:35:43;100614.72;;;22.58;100.00
39891;BME280;25564;53.312;9.790;2023-09-12T08:38:15;100600.25;;;22.72;100.00
39891;BME280;25564;53.312;9.790;2023-09-12T08:40:50;100604.78;;;22.71;100.00
39891;BME280;25564;53.312;9.790;2023-09-12T08:43:22;100600.13;;;22.73;100.00
39891;BME280;25564;53.312;9.790;2023-09-12T08:45:55;100599.94;;;22.76;100.00
39891;BME280;25564;53.312;9.790;2023-09-12T08:48:27;100600.19;;;22.86;100.00
39891;BME280;25564;53.312;9.790;2023-09-12T08:51:00;100609.13;;;22.99;100.00
39891;BME280;25564;53.312;9.790;2023-09-12T08:53:34;100607.19;;;23.14;100.00
39891;BME280;25564;53.312;9.790;2023-09-12T08:56:08;100600.84;;;23.52;100.00
39891;BME280;25564;53.312;9.790;2023-09-12T08:58:41;100608.13;;;23.88;100.00
39891;BME280;25564;53.312;9.790;2023-09-12T09:01:13;100553.69;;;23.67;100.00
39891;BME280;25564;53.312;9.790;2023-09-12T09:03:47;100601.75;;;24.00;100.00
39891;BME280;25564;53.312;9.790;2023-09-12T09:06:21;100612.72;;;23.98;100.00
39891;BME280;25564;53.312;9.790;2023-09-12T09:08:54;100620.28;;;23.82;100.00
39891;BME280;25564;53.312;9.790;2023-09-12T09:11:26;100615.31;;;23.76;100.00
39891;BME280;25564;53.312;9.790;2023-09-12T09:14:00;100613.13;;;23.81;100.00
39891;BME280;25564;53.312;9.790;2023-09-12T09:16:34;100536.91;;;23.49;100.00
39891;BME280;25564;53.312;9.790;2023-09-12T09:19:10;100618.81;;;24.13;100.00
39891;BME280;25564;53.312;9.790;2023-09-12T09:21:42;100615.53;;;24.21;100.00
39891;BME280;25564;53.312;9.790;2023-09-12T09:24:14;100615.09;;;24.27;100.00
39891;BME280;25564;53.312;9.790;2023-09-12T09:26:51;100645.97;;;24.37;100.00
39891;BME280;25564;53.312;9.790;2023-09-12T09:29:24;100658.38;;;24.28;100.00
39891;BME280;25564;53.312;9.790;2023-09-12T09:31:56;100661.81;;;24.06;100.00
39891;BME280;25564;53.312;9.790;2023-09-12T09:34:28;100660.75;;;23.96;100.00
39891;BME280;25564;53.312;9.790;2023-09-12T09:37:02;100666.59;;;23.79;100.00
39891;BME280;25564;53.312;9.790;2023-09-12T09:39:38;100673.00;;;23.53;100.00
39891;BME280;25564;53.312;9.790;2023-09-12T09:42:10;100653.75;;;23.32;100.00
39891;BME280;25564;53.312;9.790;2023-09-12T09:44:43;100664.34;;;23.22;100.00
39891;BME280;25564;53.312;9.790;2023-09-12T09:47:15;100648.31;;;23.06;100.00
39891;BME280;25564;53.312;9.790;2023-09-12T09:49:51;100614.31;;;22.90;100.00
39891;BME280;25564;53.312;9.790;2023-09-12T09:52:26;100660.47;;;23.13;100.00
39891;BME280;25564;53.312;9.790;2023-09-12T09:55:00;100658.41;;;23.17;100.00
39891;BME280;25564;53.312;9.790;2023-09-12T09:57:37;100671.19;;;23.28;100.00
39891;BME280;25564;53.312;9.790;2023-09-12T10:00:09;100670.84;;;23.20;100.00
39891;BME280;25564;53.312;9.790;2023-09-12T10:02:49;100666.94;;;23.11;100.00
39891;BME280;25564;53.312;9.790;2023-09-12T10:05:21;100666.09;;;23.10;100.00
39891;BME280;25564;53.312;9.790;2023-09-12T10:07:57;100668.34;;;23.04;100.00
39891;BME280;25564;53.312;9.790;2023-09-12T10:10:29;100682.22;;;23.12;100.00
39891;BME280;25564;53.312;9.790;2023-09-12T10:13:03;100680.16;;;23.15;100.00
39891;BME280;25564;53.312;9.790;2023-09-12T10:15:36;100676.81;;;23.12;100.00
39891;BME280;25564;53.312;9.790;2023-09-12T10:18:14;100679.19;;;23.04;100.00
39891;BME280;25564;53.312;9.790;2023-09-12T10:21:05;100613.75;;;22.59;100.00
39891;BME280;25564;53.312;9.790;2023-09-12T10:23:44;100669.13;;;22.80;100.00
39891;BME280;25564;53.312;9.790;2023-09-12T10:26:17;100673.19;;;22.73;100.00
39891;BME280;25564;53.312;9.790;2023-09-12T10:28:51;100661.91;;;22.67;100.00
39891;BME280;25564;53.312;9.790;2023-09-12T10:31:25;100670.47;;;22.61;100.00
39891;BME280;25564;53.312;9.790;2023-09-12T10:33:58;100679.84;;;22.55;100.00
39891;BME280;25564;53.312;9.790;2023-09-12T10:36:32;100672.38;;;22.46;100.00
39891;BME280;25564;53.312;9.790;2023-09-12T10:39:06;100673.53;;;22.42;100.00
39891;BME280;25564;53.312;9.790;2023-09-12T10:41:39;100675.47;;;22.40;100.00
39891;BME280;25564;53.312;9.790;2023-09-12T10:44:15;100663.56;;;22.30;100.00
39891;BME280;25564;53.312;9.790;2023-09-12T10:46:47;100690.19;;;22.36;100.00
39891;BME280;25564;53.312;9.790;2023-09-12T10:49:20;100668.81;;;22.18;100.00
39891;BME280;25564;53.312;9.790;2023-09-12T10:51:53;100654.38;;;22.05;100.00
39891;BME280;25564;53.312;9.790;2023-09-12T10:54:35;100667.03;;;21.91;100.00
39891;BME280;25564;53.312;9.790;2023-09-12T10:57:10;100642.50;;;21.52;100.00
39891;BME280;25564;53.312;9.790;2023-09-12T11:00:09;100670.97;;;21.58;100.00
39891;BME280;25564;53.312;9.790;2023-09-12T11:02:50;100651.09;;;21.31;100.00
39891;BME280;25564;53.312;9.790;2023-09-12T11:08:01;100656.78;;;21.26;100.00
39891;BME280;25564;53.312;9.790;2023-09-12T11:10:35;100667.50;;;21.28;100.00
39891;BME280;25564;53.312;9.790;2023-09-12T11:13:17;100636.91;;;21.13;100.00
39891;BME280;25564;53.312;9.790;2023-09-12T11:16:16;100639.88;;;21.08;100.00
39891;BME280;25564;53.312;9.790;2023-09-12T11:19:15;100644.50;;;21.06;100.00
39891;BME280;25564;53.312;9.790;2023-09-12T11:21:50;100649.41;;;21.00;100.00
39891;BME280;25564;53.312;9.790;2023-09-12T11:24:21;100653.94;;;20.99;100.00
39891;BME280;25564;53.312;9.790;2023-09-12T11:26:58;100637.00;;;20.97;100.00
39891;BME280;25564;53.312;9.790;2023-09-12T11:29:36;100649.44;;;21.14;100.00
39891;BME280;25564;53.312;9.790;2023-09-12T11:32:08;100639.03;;;21.08;100.00
39891;BME280;25564;53.312;9.790;2023-09-12T11:34:41;100635.16;;;20.98;100.00
39891;BME280;25564;53.312;9.790;2023-09-12T11:37:23;100590.25;;;20.68;100.00
39891;BME280;25564;53.312;9.790;2023-09-12T11:39:55;100628.41;;;20.90;100.00
39891;BME280;25564;53.312;9.790;2023-09-12T11:42:29;100630.22;;;20.90;100.00
39891;BME280;25564;53.312;9.790;2023-09-12T11:45:07;100600.09;;;20.69;100.00
39891;BME280;25564;53.312;9.790;2023-09-12T11:47:43;100605.28;;;20.72;100.00
39891;BME280;25564;53.312;9.790;2023-09-12T11:50:31;100636.50;;;20.90;100.00
39891;BME280;25564;53.312;9.790;2023-09-12T11:53:07;100637.84;;;20.98;100.00
39891;BME280;25564;53.312;9.790;2023-09-12T11:55:45;100626.88;;;21.01;100.00
39891;BME280;25564;53.312;9.790;2023-09-12T11:58:18;100634.41;;;21.10;100.00
39891;BME280;25564;53.312;9.790;2023-09-12T12:00:52;100619.84;;;21.12;100.00
39891;BME280;25564;53.312;9.790;2023-09-12T12:03:26;100601.72;;;21.00;100.00
39891;BME280;25564;53.312;9.790;2023-09-12T12:05:59;100604.91;;;20.93;100.00
39891;BME280;25564;53.312;9.790;2023-09-12T12:08:31;100584.75;;;20.98;100.00
39891;BME280;25564;53.312;9.790;2023-09-12T12:11:03;100591.13;;;21.11;100.00
39891;BME280;25564;53.312;9.790;2023-09-12T12:13:35;100586.00;;;21.21;100.00
39891;BME280;25564;53.312;9.790;2023-09-12T12:16:16;100589.41;;;21.39;100.00
39891;BME280;25564;53.312;9.790;2023-09-12T12:18:48;100595.66;;;21.39;100.00
39891;BME280;25564;53.312;9.790;2023-09-12T12:21:26;100599.31;;;21.52;100.00
39891;BME280;25564;53.312;9.790;2023-09-12T12:24:03;100608.06;;;21.70;100.00
39891;BME280;25564;53.312;9.790;2023-09-12T12:26:35;100617.50;;;21.90;100.00
39891;BME280;25564;53.312;9.790;2023-09-12T12:29:08;100597.63;;;21.91;100.00
39891;BME280;25564;53.312;9.790;2023-09-12T12:31:41;100633.75;;;22.17;100.00
39891;BME280;25564;53.312;9.790;2023-09-12T12:34:13;100643.31;;;22.23;100.00
39891;BME280;25564;53.312;9.790;2023-09-12T12:37:06;100635.81;;;22.13;100.00
39891;BME280;25564;53.312;9.790;2023-09-12T12:39:42;100619.72;;;21.98;100.00
39891;BME280;25564;53.312;9.790;2023-09-12T12:42:14;100597.41;;;21.81;100.00
39891;BME280;25564;53.312;9.790;2023-09-12T12:44:46;100643.03;;;22.13;100.00
39891;BME280;25564;53.312;9.790;2023-09-12T12:47:20;100612.25;;;22.01;100.00
39891;BME280;25564;53.312;9.790;2023-09-12T12:49:52;100594.31;;;22.00;100.00
39891;BME280;25564;53.312;9.790;2023-09-12T12:52:24;100628.66;;;22.12;100.00
39891;BME280;25564;53.312;9.790;2023-09-12T12:55:04;100617.84;;;22.12;100.00
39891;BME280;25564;53.312;9.790;2023-09-12T12:57:40;100612.59;;;22.24;100.00
39891;BME280;25564;53.312;9.790;2023-09-12T13:00:14;100601.78;;;22.24;100.00
39891;BME280;25564;53.312;9.790;2023-09-12T13:02:45;100585.91;;;22.32;100.00
39891;BME280;25564;53.312;9.790;2023-09-12T13:05:28;100598.50;;;22.58;100.00
39891;BME280;25564;53.312;9.790;2023-09-12T13:08:01;100580.53;;;22.57;100.00
39891;BME280;25564;53.312;9.790;2023-09-12T13:10:33;100590.28;;;22.72;100.00
39891;BME280;25564;53.312;9.790;2023-09-12T13:13:06;100600.28;;;22.85;100.00
39891;BME280;25564;53.312;9.790;2023-09-12T13:15:37;100596.56;;;22.98;100.00
39891;BME280;25564;53.312;9.790;2023-09-12T13:18:09;100586.59;;;23.11;100.00
39891;BME280;25564;53.312;9.790;2023-09-12T13:20:41;100592.97;;;23.23;100.00
39891;BME280;25564;53.312;9.790;2023-09-12T13:23:12;100606.50;;;23.36;100.00